createdAt,value
2022-08-02T00:00:57.643Z,0.00
2022-08-02T00:01:57.642Z,0.00
2022-08-02T00:02:57.553Z,0.00
2022-08-02T00:03:57.505Z,0.00
2022-08-02T00:04:57.463Z,0.00
2022-08-02T00:05:57.417Z,0.00
2022-08-02T00:06:57.408Z,0.00
2022-08-02T00:07:57.325Z,0.00
2022-08-02T00:08:57.295Z,0.00
2022-08-02T00:09:57.234Z,0.00
2022-08-02T00:10:57.214Z,0.00
2022-08-02T00:11:57.163Z,0.00
2022-08-02T00:12:57.121Z,0.00
2022-08-02T00:13:57.078Z,0.00
2022-08-02T00:14:57.033Z,0.00
2022-08-02T00:15:56.964Z,0.00
2022-08-02T00:16:56.919Z,0.00
2022-08-02T00:17:56.883Z,0.00
2022-08-02T00:18:56.838Z,0.00
2022-08-02T00:19:56.783Z,0.00
2022-08-02T00:20:56.741Z,0.00
2022-08-02T00:21:56.701Z,0.00
2022-08-02T00:22:56.659Z,0.00
2022-08-02T00:24:27.874Z,0.00
2022-08-02T00:24:56.560Z,0.00
2022-08-02T00:25:56.513Z,0.00
2022-08-02T00:26:56.467Z,0.00
2022-08-02T00:27:56.422Z,0.00
2022-08-02T00:28:56.381Z,0.00
2022-08-02T00:29:56.333Z,0.00
2022-08-02T00:30:56.317Z,0.00
2022-08-02T00:31:56.242Z,0.00
2022-08-02T00:32:56.199Z,0.00
2022-08-02T00:34:27.175Z,0.00
2022-08-02T00:34:56.114Z,0.00
2022-08-02T00:35:56.060Z,0.00
2022-08-02T00:36:56.019Z,0.00
2022-08-02T00:37:55.972Z,0.00
2022-08-02T00:38:55.928Z,0.00
2022-08-02T00:39:55.881Z,0.00
2022-08-02T00:40:58.146Z,0.00
2022-08-02T00:41:55.793Z,0.00
2022-08-02T00:42:55.749Z,0.00
2022-08-02T00:43:55.699Z,0.00
2022-08-02T00:44:55.660Z,0.00
2022-08-02T00:46:02.278Z,0.00
2022-08-02T00:46:55.565Z,0.00
2022-08-02T00:47:55.518Z,0.00
2022-08-02T00:48:55.521Z,0.00
2022-08-02T00:49:55.428Z,0.00
2022-08-02T00:50:55.384Z,0.00
2022-08-02T00:51:55.338Z,0.00
2022-08-02T00:52:55.293Z,0.00
2022-08-02T00:53:55.246Z,0.00
2022-08-02T00:54:55.203Z,0.00
2022-08-02T00:55:55.155Z,0.00
2022-08-02T00:56:55.114Z,0.00
2022-08-02T00:57:55.068Z,0.00
2022-08-02T00:59:54.977Z,0.00
2022-08-02T01:00:54.933Z,0.00
2022-08-02T01:01:56.876Z,0.00
2022-08-02T01:02:54.840Z,0.00
2022-08-02T01:03:54.795Z,0.00
2022-08-02T01:04:54.752Z,0.00
2022-08-02T01:06:10.205Z,0.00
2022-08-02T01:06:54.659Z,0.00
2022-08-02T01:07:54.614Z,0.00
2022-08-02T01:08:54.568Z,0.00
2022-08-02T01:09:54.530Z,0.00
2022-08-02T01:10:54.478Z,0.00
2022-08-02T01:11:54.434Z,0.00
2022-08-02T01:12:54.389Z,0.00
2022-08-02T01:13:54.347Z,0.00
2022-08-02T01:14:54.295Z,0.00
2022-08-02T01:15:54.254Z,0.00
2022-08-02T01:16:54.205Z,0.00
2022-08-02T01:17:54.163Z,0.00
2022-08-02T01:18:54.115Z,0.00
2022-08-02T01:19:54.075Z,0.00
2022-08-02T01:20:54.026Z,0.00
2022-08-02T01:21:53.983Z,0.00
2022-08-02T01:23:02.522Z,0.00
2022-08-02T01:23:53.890Z,0.00
2022-08-02T01:24:53.844Z,0.00
2022-08-02T01:25:53.800Z,0.00
2022-08-02T01:26:53.754Z,0.00
2022-08-02T01:27:53.708Z,0.00
2022-08-02T01:28:53.665Z,0.00
2022-08-02T01:29:53.619Z,0.00
2022-08-02T01:30:53.573Z,0.00
2022-08-02T01:31:53.528Z,0.00
2022-08-02T01:32:53.486Z,0.00
2022-08-02T01:33:53.438Z,0.00
2022-08-02T01:34:53.393Z,0.00
2022-08-02T01:35:53.348Z,0.00
2022-08-02T01:36:53.303Z,0.00
2022-08-02T01:37:53.257Z,0.00
2022-08-02T01:38:53.212Z,0.00
2022-08-02T01:39:53.167Z,0.00
2022-08-02T01:40:53.125Z,0.00
2022-08-02T01:41:57.381Z,0.00
2022-08-02T01:42:53.030Z,0.00
2022-08-02T01:43:52.983Z,0.00
2022-08-02T01:44:52.943Z,0.00
2022-08-02T01:45:52.897Z,0.00
2022-08-02T01:46:52.849Z,0.00
2022-08-02T01:47:52.802Z,0.00
2022-08-02T01:48:52.861Z,0.00
2022-08-02T01:49:52.711Z,0.00
2022-08-02T01:50:52.669Z,0.00
2022-08-02T01:51:52.621Z,0.00
2022-08-02T01:52:53.161Z,0.00
2022-08-02T01:53:52.532Z,0.00
2022-08-02T01:54:52.487Z,0.00
2022-08-02T01:55:57.071Z,0.00
2022-08-02T01:56:52.397Z,0.00
2022-08-02T01:57:52.350Z,0.00
2022-08-02T01:58:52.306Z,0.00
2022-08-02T01:59:52.259Z,0.00
2022-08-02T02:00:52.261Z,0.00
2022-08-02T02:01:52.252Z,0.00
2022-08-02T02:02:52.124Z,0.00
2022-08-02T02:03:52.077Z,0.00
2022-08-02T02:04:52.034Z,0.00
2022-08-02T02:05:51.987Z,0.00
2022-08-02T02:06:51.943Z,0.00
2022-08-02T02:07:51.896Z,0.00
2022-08-02T02:08:51.856Z,0.00
2022-08-02T02:09:51.810Z,0.00
2022-08-02T02:10:51.760Z,0.00
2022-08-02T02:12:11.834Z,0.00
2022-08-02T02:12:51.671Z,0.00
2022-08-02T02:13:51.625Z,0.00
2022-08-02T02:14:52.291Z,0.00
2022-08-02T02:15:51.533Z,0.00
2022-08-02T02:16:51.493Z,0.00
2022-08-02T02:18:10.976Z,0.00
2022-08-02T02:18:51.398Z,0.00
2022-08-02T02:19:51.354Z,0.00
2022-08-02T02:20:51.307Z,0.00
2022-08-02T02:21:51.261Z,0.00
2022-08-02T02:22:51.229Z,0.00
2022-08-02T02:23:51.172Z,0.00
2022-08-02T02:24:51.127Z,0.00
2022-08-02T02:25:51.079Z,0.00
2022-08-02T02:26:52.396Z,0.00
2022-08-02T02:27:50.990Z,0.00
2022-08-02T02:28:50.947Z,0.00
2022-08-02T02:29:50.898Z,0.00
2022-08-02T02:30:50.854Z,0.00
2022-08-02T02:31:50.807Z,0.00
2022-08-02T02:32:50.767Z,0.00
2022-08-02T02:33:50.718Z,0.00
2022-08-02T02:34:50.673Z,0.00
2022-08-02T02:35:50.625Z,0.00
2022-08-02T02:36:50.581Z,0.00
2022-08-02T02:37:50.536Z,0.00
2022-08-02T02:38:50.492Z,0.00
2022-08-02T02:39:50.443Z,0.00
2022-08-02T02:40:50.403Z,0.00
2022-08-02T02:41:50.356Z,0.00
2022-08-02T02:42:50.308Z,0.00
2022-08-02T02:43:50.262Z,0.00
2022-08-02T02:44:50.219Z,0.00
2022-08-02T02:45:50.172Z,0.00
2022-08-02T02:46:50.126Z,0.00
2022-08-02T02:47:50.079Z,0.00
2022-08-02T02:48:50.099Z,0.00
2022-08-02T02:49:49.989Z,0.00
2022-08-02T02:50:49.945Z,0.00
2022-08-02T02:51:49.897Z,0.00
2022-08-02T02:52:49.854Z,0.00
2022-08-02T02:54:30.784Z,0.00
2022-08-02T02:54:49.762Z,0.00
2022-08-02T02:56:02.191Z,0.00
2022-08-02T02:56:49.670Z,0.00
2022-08-02T02:57:49.625Z,0.00
2022-08-02T02:58:49.580Z,0.00
2022-08-02T02:59:50.056Z,0.00
2022-08-02T03:00:49.516Z,0.00
2022-08-02T03:01:55.760Z,0.00
2022-08-02T03:02:49.399Z,0.00
2022-08-02T03:03:49.350Z,0.00
2022-08-02T03:04:55.940Z,0.00
2022-08-02T03:05:49.260Z,0.00
2022-08-02T03:06:49.214Z,0.00
2022-08-02T03:07:49.168Z,0.00
2022-08-02T03:08:49.124Z,0.00
2022-08-02T03:09:54.181Z,0.00
2022-08-02T03:10:49.032Z,0.00
2022-08-02T03:11:48.987Z,0.00
2022-08-02T03:12:48.944Z,0.00
2022-08-02T03:13:48.898Z,0.00
2022-08-02T03:14:49.372Z,0.00
2022-08-02T03:15:48.804Z,0.00
2022-08-02T03:16:48.761Z,0.00
2022-08-02T03:17:48.713Z,0.00
2022-08-02T03:18:48.667Z,0.00
2022-08-02T03:19:48.622Z,0.00
2022-08-02T03:20:48.577Z,0.00
2022-08-02T03:21:48.531Z,0.00
2022-08-02T03:22:48.484Z,0.00
2022-08-02T03:23:48.437Z,0.00
2022-08-02T03:24:48.394Z,0.00
2022-08-02T03:25:48.348Z,0.00
2022-08-02T03:26:48.304Z,0.00
2022-08-02T03:27:48.258Z,0.00
2022-08-02T03:28:48.213Z,0.00
2022-08-02T03:29:48.166Z,0.00
2022-08-02T03:30:48.120Z,0.00
2022-08-02T03:31:48.073Z,0.00
2022-08-02T03:32:48.037Z,4.00
2022-08-02T03:33:47.985Z,4.00
2022-08-02T03:34:47.938Z,0.00
2022-08-02T03:35:47.892Z,4.00
2022-08-02T03:37:47.802Z,4.00
2022-08-02T03:39:52.685Z,4.00
2022-08-02T03:40:47.665Z,8.00
2022-08-02T03:41:47.620Z,4.00
2022-08-02T03:42:47.572Z,8.00
2022-08-02T03:43:47.528Z,8.00
2022-08-02T03:44:47.485Z,8.00
2022-08-02T03:47:14.233Z,16.00
2022-08-02T03:48:31.804Z,16.00
2022-08-02T03:49:14.185Z,16.00
2022-08-02T03:50:14.092Z,20.00
2022-08-02T03:51:14.051Z,20.00
2022-08-02T03:52:14.294Z,24.00
2022-08-02T03:53:20.039Z,24.00
2022-08-02T03:54:13.913Z,28.00
2022-08-02T03:55:13.867Z,28.00
2022-08-02T03:56:13.821Z,32.00
2022-08-02T03:57:13.777Z,36.00
2022-08-02T03:58:13.728Z,40.00
2022-08-02T03:59:13.685Z,44.00
2022-08-02T04:00:13.638Z,48.00
2022-08-02T04:01:13.642Z,52.00
2022-08-02T04:02:13.923Z,56.00
2022-08-02T04:03:13.510Z,64.00
2022-08-02T04:04:13.460Z,68.00
2022-08-02T04:05:13.408Z,76.00
2022-08-02T04:06:13.363Z,80.00
2022-08-02T04:07:13.318Z,84.00
2022-08-02T04:08:35.874Z,88.00
2022-08-02T04:09:13.227Z,96.00
2022-08-02T04:10:13.182Z,100.00
2022-08-02T04:11:13.143Z,108.00
2022-08-02T04:12:13.428Z,116.00
2022-08-02T04:13:13.048Z,120.00
2022-08-02T04:14:12.998Z,124.00
2022-08-02T04:15:12.954Z,132.00
2022-08-02T04:16:12.905Z,136.00
2022-08-02T04:17:12.861Z,144.00
2022-08-02T04:18:12.816Z,152.00
2022-08-02T04:19:14.911Z,160.00
2022-08-02T04:20:12.722Z,168.00
2022-08-02T04:21:12.677Z,180.00
2022-08-02T04:22:13.000Z,188.00
2022-08-02T04:23:12.611Z,196.00
2022-08-02T04:24:12.539Z,208.00
2022-08-02T04:25:17.190Z,216.00
2022-08-02T04:26:12.450Z,228.00
2022-08-02T04:27:48.870Z,240.00
2022-08-02T04:28:17.613Z,252.00
2022-08-02T04:29:12.313Z,260.00
2022-08-02T04:30:12.266Z,268.00
2022-08-02T04:31:12.220Z,280.00
2022-08-02T04:32:12.484Z,284.00
2022-08-02T04:33:12.130Z,296.00
2022-08-02T04:34:15.066Z,304.00
2022-08-02T04:35:19.080Z,316.00
2022-08-02T04:36:11.994Z,324.00
2022-08-02T04:37:11.946Z,328.00
2022-08-02T04:38:11.903Z,336.00
2022-08-02T04:39:11.856Z,344.00
2022-08-02T04:40:11.808Z,344.00
2022-08-02T04:41:11.766Z,348.00
2022-08-02T04:42:11.933Z,352.00
2022-08-02T04:43:11.672Z,356.00
2022-08-02T04:44:11.653Z,364.00
2022-08-02T04:45:11.580Z,368.00
2022-08-02T04:46:11.535Z,372.00
2022-08-02T04:47:11.489Z,372.00
2022-08-02T04:48:11.445Z,376.00
2022-08-02T04:49:11.495Z,376.00
2022-08-02T04:50:11.350Z,376.00
2022-08-02T04:51:11.307Z,380.00
2022-08-02T04:52:11.467Z,388.00
2022-08-02T04:53:11.214Z,392.00
2022-08-02T04:54:11.181Z,404.00
2022-08-02T04:55:11.123Z,416.00
2022-08-02T04:56:11.077Z,424.00
2022-08-02T04:58:37.442Z,456.00
2022-08-02T04:59:10.941Z,476.00
2022-08-02T05:00:10.895Z,496.00
2022-08-02T05:01:10.920Z,528.00
2022-08-02T05:02:11.056Z,564.00
2022-08-02T05:03:10.760Z,596.00
2022-08-02T05:04:10.713Z,628.00
2022-08-02T05:05:10.674Z,648.00
2022-08-02T05:06:19.490Z,656.00
2022-08-02T05:07:10.575Z,656.00
2022-08-02T05:08:10.531Z,652.00
2022-08-02T05:09:10.487Z,648.00
2022-08-02T05:10:10.441Z,644.00
2022-08-02T05:11:10.393Z,648.00
2022-08-02T05:12:10.692Z,652.00
2022-08-02T05:13:10.301Z,656.00
2022-08-02T05:14:10.258Z,648.00
2022-08-02T05:15:12.588Z,656.00
2022-08-02T05:16:10.164Z,700.00
2022-08-02T05:17:10.119Z,744.00
2022-08-02T05:18:10.074Z,780.00
2022-08-02T05:19:10.027Z,820.00
2022-08-02T05:20:10.010Z,868.00
2022-08-02T05:21:09.939Z,924.00
2022-08-02T05:22:10.149Z,960.00
2022-08-02T05:23:09.845Z,984.00
2022-08-02T05:24:09.800Z,1012.00
2022-08-02T05:25:09.754Z,1044.00
2022-08-02T05:26:09.710Z,1080.00
2022-08-02T05:27:16.521Z,1104.00
2022-08-02T05:28:11.720Z,1064.00
2022-08-02T05:29:09.579Z,984.00
2022-08-02T05:30:09.530Z,928.00
2022-08-02T05:31:12.525Z,876.00
2022-08-02T05:32:09.725Z,840.00
2022-08-02T05:33:09.390Z,816.00
2022-08-02T05:34:11.988Z,800.00
2022-08-02T05:35:09.299Z,792.00
2022-08-02T05:36:09.463Z,788.00
2022-08-02T05:37:10.039Z,788.00
2022-08-02T05:38:10.123Z,784.00
2022-08-02T05:39:10.789Z,800.00
2022-08-02T05:40:12.887Z,816.00
2022-08-02T05:41:09.028Z,836.00
2022-08-02T05:42:09.372Z,844.00
2022-08-02T05:43:08.938Z,852.00
2022-08-02T05:44:08.892Z,860.00
2022-08-02T05:45:08.846Z,868.00
2022-08-02T05:46:08.803Z,876.00
2022-08-02T05:47:08.756Z,880.00
2022-08-02T05:48:08.712Z,900.00
2022-08-02T05:49:08.706Z,908.00
2022-08-02T05:50:08.624Z,920.00
2022-08-02T05:51:08.578Z,920.00
2022-08-02T05:52:08.932Z,920.00
2022-08-02T05:53:08.484Z,920.00
2022-08-02T05:54:08.441Z,920.00
2022-08-02T05:55:09.733Z,924.00
2022-08-02T05:56:08.724Z,924.00
2022-08-02T05:57:08.307Z,924.00
2022-08-02T05:58:08.269Z,928.00
2022-08-02T05:59:08.218Z,932.00
2022-08-02T06:00:08.171Z,944.00
2022-08-02T06:01:08.127Z,944.00
2022-08-02T06:02:08.206Z,940.00
2022-08-02T06:03:08.036Z,944.00
2022-08-02T06:04:07.995Z,952.00
2022-08-02T06:05:07.947Z,960.00
2022-08-02T06:06:07.901Z,964.00
2022-08-02T06:07:07.856Z,944.00
2022-08-02T06:08:07.815Z,980.00
2022-08-02T06:09:07.764Z,992.00
2022-08-02T06:10:07.723Z,980.00
2022-08-02T06:11:07.899Z,972.00
2022-08-02T06:12:07.682Z,968.00
2022-08-02T06:13:07.590Z,976.00
2022-08-02T06:14:07.544Z,980.00
2022-08-02T06:15:07.495Z,1004.00
2022-08-02T06:16:07.497Z,1024.00
2022-08-02T06:17:07.475Z,1032.00
2022-08-02T06:18:07.396Z,1032.00
2022-08-02T06:19:07.522Z,1028.00
2022-08-02T06:20:07.277Z,1024.00
2022-08-02T06:22:31.550Z,1024.00
2022-08-02T06:22:41.895Z,1024.00
2022-08-02T06:23:10.752Z,1028.00
2022-08-02T06:24:07.096Z,1040.00
2022-08-02T06:25:47.884Z,1060.00
2022-08-02T06:26:07.008Z,1076.00
2022-08-02T06:27:07.020Z,1092.00
2022-08-02T06:28:10.491Z,1128.00
2022-08-02T06:29:06.875Z,1152.00
2022-08-02T06:30:06.832Z,1172.00
2022-08-02T06:31:06.815Z,1180.00
2022-08-02T06:32:06.758Z,1196.00
2022-08-02T06:33:06.715Z,1196.00
2022-08-02T06:34:06.669Z,1192.00
2022-08-02T06:35:06.612Z,1160.00
2022-08-02T06:36:06.563Z,1092.00
2022-08-02T06:37:06.517Z,1148.00
2022-08-02T06:38:06.475Z,1148.00
2022-08-02T06:39:06.432Z,1160.00
2022-08-02T06:40:06.387Z,1128.00
2022-08-02T06:41:06.340Z,1120.00
2022-08-02T06:42:06.300Z,1160.00
2022-08-02T06:43:06.253Z,1176.00
2022-08-02T06:44:33.834Z,1200.00
2022-08-02T06:45:06.165Z,1236.00
2022-08-02T06:47:09.230Z,1240.00
2022-08-02T06:47:10.873Z,1272.00
2022-08-02T06:48:06.035Z,1252.00
2022-08-02T06:49:06.036Z,1248.00
2022-08-02T06:50:06.094Z,1264.00
2022-08-02T06:51:05.901Z,1208.00
2022-08-02T06:52:05.858Z,1196.00
2022-08-02T06:53:05.814Z,1200.00
2022-08-02T06:54:05.770Z,1216.00
2022-08-02T06:55:05.726Z,1252.00
2022-08-02T06:56:07.193Z,1264.00
2022-08-02T06:57:05.639Z,1296.00
2022-08-02T06:58:05.597Z,1324.00
2022-08-02T06:59:06.194Z,1372.00
2022-08-02T07:00:05.514Z,1404.00
2022-08-02T07:01:05.510Z,1416.00
2022-08-02T07:02:05.470Z,1448.00
2022-08-02T07:03:05.384Z,1436.00
2022-08-02T07:04:05.335Z,1428.00
2022-08-02T07:05:05.290Z,1400.00
2022-08-02T07:06:05.247Z,1400.00
2022-08-02T07:07:05.429Z,1384.00
2022-08-02T07:08:05.162Z,1316.00
2022-08-02T07:09:21.927Z,1356.00
2022-08-02T07:10:05.071Z,1456.00
2022-08-02T07:11:05.028Z,1464.00
2022-08-02T07:12:04.986Z,1476.00
2022-08-02T07:13:04.957Z,1528.00
2022-08-02T07:14:04.898Z,1552.00
2022-08-02T07:15:04.853Z,1604.00
2022-08-02T07:16:04.812Z,1612.00
2022-08-02T07:17:04.769Z,1692.00
2022-08-02T07:18:04.728Z,1688.00
2022-08-02T07:19:04.679Z,1704.00
2022-08-02T07:20:04.638Z,1716.00
2022-08-02T07:21:04.593Z,1712.00
2022-08-02T07:22:04.553Z,1624.00
2022-08-02T07:23:04.505Z,1448.00
2022-08-02T07:24:04.467Z,1368.00
2022-08-02T07:25:04.426Z,1396.00
2022-08-02T07:26:05.881Z,1416.00
2022-08-02T07:27:12.701Z,1548.00
2022-08-02T07:28:04.291Z,1720.00
2022-08-02T07:29:04.247Z,1712.00
2022-08-02T07:30:04.207Z,1620.00
2022-08-02T07:31:04.161Z,1724.00
2022-08-02T07:32:04.118Z,1752.00
2022-08-02T07:33:04.075Z,1756.00
2022-08-02T07:34:04.033Z,1748.00
2022-08-02T07:35:07.050Z,1728.00
2022-08-02T07:36:04.805Z,1680.00
2022-08-02T07:37:03.904Z,1588.00
2022-08-02T07:38:03.860Z,1508.00
2022-08-02T07:39:03.819Z,1588.00
2022-08-02T07:40:07.546Z,1620.00
2022-08-02T07:41:03.730Z,1652.00
2022-08-02T07:42:03.691Z,1668.00
2022-08-02T07:43:04.415Z,1692.00
2022-08-02T07:44:03.602Z,1700.00
2022-08-02T07:45:03.559Z,1704.00
2022-08-02T07:46:03.519Z,1660.00
2022-08-02T07:47:03.477Z,1708.00
2022-08-02T07:48:03.437Z,1704.00
2022-08-02T07:49:03.520Z,1740.00
2022-08-02T07:50:03.350Z,1700.00
2022-08-02T07:51:03.303Z,1680.00
2022-08-02T07:52:03.261Z,1620.00
2022-08-02T07:53:03.217Z,1740.00
2022-08-02T07:54:04.787Z,1776.00
2022-08-02T07:55:03.134Z,1816.00
2022-08-02T07:56:03.091Z,1836.00
2022-08-02T07:57:03.047Z,1860.00
2022-08-02T07:58:03.007Z,1884.00
2022-08-02T07:59:02.962Z,1892.00
2022-08-02T08:00:02.920Z,1912.00
2022-08-02T08:01:02.933Z,1928.00
2022-08-02T08:02:02.885Z,1960.00
2022-08-02T08:03:02.792Z,1976.00
2022-08-02T08:04:02.750Z,2004.00
2022-08-02T08:05:02.708Z,2024.00
2022-08-02T08:06:02.665Z,2032.00
2022-08-02T08:07:02.622Z,2020.00
2022-08-02T08:08:02.584Z,2088.00
2022-08-02T08:09:02.538Z,2096.00
2022-08-02T08:10:02.499Z,2068.00
2022-08-02T08:11:02.456Z,2020.00
2022-08-02T08:12:02.409Z,2016.00
2022-08-02T08:13:02.373Z,1964.00
2022-08-02T08:14:02.329Z,2196.00
2022-08-02T08:15:02.286Z,2288.00
2022-08-02T08:16:02.240Z,2296.00
2022-08-02T08:17:02.200Z,2336.00
2022-08-02T08:18:02.158Z,2344.00
2022-08-02T08:19:02.117Z,2348.00
2022-08-02T08:20:02.072Z,2300.00
2022-08-02T08:21:02.031Z,2104.00
2022-08-02T08:22:01.988Z,2108.00
2022-08-02T08:23:01.955Z,2012.00
2022-08-02T08:24:01.903Z,2008.00
2022-08-02T08:25:01.863Z,2044.00
2022-08-02T08:26:01.821Z,2216.00
2022-08-02T08:27:01.782Z,2356.00
2022-08-02T08:28:01.739Z,2388.00
2022-08-02T08:29:01.698Z,2424.00
2022-08-02T08:30:01.653Z,2268.00
2022-08-02T08:31:01.612Z,2440.00
2022-08-02T08:32:01.570Z,2436.00
2022-08-02T08:33:01.531Z,2436.00
2022-08-02T08:34:01.488Z,2284.00
2022-08-02T08:35:01.443Z,2384.00
2022-08-02T08:36:02.750Z,2140.00
2022-08-02T08:37:01.363Z,2376.00
2022-08-02T08:38:05.593Z,2460.00
2022-08-02T08:39:01.277Z,2392.00
2022-08-02T08:40:01.238Z,2340.00
2022-08-02T08:41:01.197Z,2220.00
2022-08-02T08:42:01.152Z,2112.00
2022-08-02T08:43:01.111Z,1964.00
2022-08-02T08:44:01.066Z,1880.00
2022-08-02T08:45:01.197Z,1772.00
2022-08-02T08:46:00.983Z,2256.00
2022-08-02T08:47:00.951Z,2240.00
2022-08-02T08:48:00.900Z,2376.00
2022-08-02T08:49:00.928Z,2424.00
2022-08-02T08:50:00.818Z,2428.00
2022-08-02T08:51:00.782Z,2452.00
2022-08-02T08:52:00.733Z,2444.00
2022-08-02T08:53:00.697Z,2404.00
2022-08-02T08:54:00.652Z,2216.00
2022-08-02T08:55:00.611Z,2136.00
2022-08-02T08:56:00.569Z,2204.00
2022-08-02T08:57:00.531Z,2372.00
2022-08-02T08:58:00.485Z,2428.00
2022-08-02T08:59:00.448Z,2360.00
2022-08-02T09:00:00.403Z,2288.00
2022-08-02T09:01:00.503Z,2236.00
2022-08-02T09:02:00.365Z,2368.00
2022-08-02T09:03:00.281Z,2340.00
2022-08-02T09:04:00.237Z,2516.00
2022-08-02T09:05:00.202Z,2492.00
2022-08-02T09:06:00.155Z,2404.00
2022-08-02T09:07:00.114Z,2476.00
2022-08-02T09:08:00.071Z,2404.00
2022-08-02T09:09:00.035Z,2456.00
2022-08-02T09:09:59.993Z,2576.00
2022-08-02T09:10:59.952Z,2596.00
2022-08-02T09:11:59.909Z,2624.00
2022-08-02T09:12:59.869Z,2660.00
2022-08-02T09:13:59.829Z,2640.00
2022-08-02T09:14:59.789Z,2720.00
2022-08-02T09:16:00.856Z,2784.00
2022-08-02T09:16:59.704Z,2840.00
2022-08-02T09:17:59.666Z,2876.00
2022-08-02T09:18:59.622Z,2804.00
2022-08-02T09:19:59.583Z,2864.00
2022-08-02T09:20:59.540Z,2880.00
2022-08-02T09:21:59.498Z,2912.00
2022-08-02T09:22:59.461Z,2944.00
2022-08-02T09:23:59.417Z,2840.00
2022-08-02T09:24:59.378Z,2948.00
2022-08-02T09:26:00.872Z,2840.00
2022-08-02T09:26:59.295Z,2872.00
2022-08-02T09:27:59.251Z,2852.00
2022-08-02T09:28:59.217Z,2928.00
2022-08-02T09:30:12.035Z,2864.00
2022-08-02T09:30:59.133Z,2800.00
2022-08-02T09:31:59.096Z,2952.00
2022-08-02T09:32:59.050Z,3108.00
2022-08-02T09:33:59.021Z,3208.00
2022-08-02T09:34:58.972Z,3208.00
2022-08-02T09:36:06.076Z,3120.00
2022-08-02T09:36:58.889Z,3048.00
2022-08-02T09:37:58.847Z,2580.00
2022-08-02T09:38:58.807Z,2600.00
2022-08-02T09:39:59.594Z,2956.00
2022-08-02T09:40:58.727Z,3196.00
2022-08-02T09:41:58.684Z,3168.00
2022-08-02T09:42:58.645Z,3188.00
2022-08-02T09:44:04.659Z,3064.00
2022-08-02T09:44:58.564Z,2704.00
2022-08-02T09:45:58.522Z,3368.00
2022-08-02T09:46:58.487Z,3688.00
2022-08-02T09:47:58.439Z,3612.00
2022-08-02T09:48:58.490Z,3844.00
2022-08-02T09:49:58.360Z,3688.00
2022-08-02T09:50:58.324Z,3680.00
2022-08-02T09:51:58.277Z,3708.00
2022-08-02T09:52:58.240Z,3504.00
2022-08-02T09:54:07.961Z,3264.00
2022-08-02T09:54:58.160Z,3204.00
2022-08-02T09:55:58.116Z,3048.00
2022-08-02T09:56:58.078Z,2852.00
2022-08-02T09:57:58.038Z,3104.00
2022-08-02T09:58:58.008Z,3372.00
2022-08-02T09:59:57.954Z,3540.00
2022-08-02T10:00:57.956Z,3604.00
2022-08-02T10:01:58.845Z,3532.00
2022-08-02T10:02:57.837Z,3384.00
2022-08-02T10:03:57.797Z,3492.00
2022-08-02T10:04:57.754Z,3468.00
2022-08-02T10:06:02.101Z,3280.00
2022-08-02T10:06:57.679Z,3156.00
2022-08-02T10:07:57.631Z,3116.00
2022-08-02T10:08:57.596Z,2772.00
2022-08-02T10:09:57.555Z,2712.00
2022-08-02T10:10:57.514Z,2440.00
2022-08-02T10:11:57.473Z,2336.00
2022-08-02T10:12:57.433Z,2188.00
2022-08-02T10:13:57.399Z,2272.00
2022-08-02T10:14:57.360Z,2548.00
2022-08-02T10:15:57.311Z,3308.00
2022-08-02T10:16:57.273Z,3524.00
2022-08-02T10:17:57.231Z,3904.00
2022-08-02T10:18:57.204Z,3900.00
2022-08-02T10:20:00.508Z,3384.00
2022-08-02T10:20:57.112Z,2384.00
2022-08-02T10:21:57.073Z,3100.00
2022-08-02T10:22:57.033Z,2584.00
2022-08-02T10:23:56.990Z,3432.00
2022-08-02T10:24:56.952Z,3224.00
2022-08-02T10:25:56.912Z,3456.00
2022-08-02T10:26:56.873Z,3460.00
2022-08-02T10:28:05.074Z,4340.00
2022-08-02T10:28:56.792Z,3972.00
2022-08-02T10:29:56.751Z,2852.00
2022-08-02T10:30:56.713Z,4288.00
2022-08-02T10:31:56.713Z,4676.00
2022-08-02T10:32:56.634Z,4632.00
2022-08-02T10:33:56.592Z,4620.00
2022-08-02T10:34:56.557Z,4360.00
2022-08-02T10:36:07.416Z,4200.00
2022-08-02T10:36:56.480Z,4384.00
2022-08-02T10:37:56.435Z,4788.00
2022-08-02T10:38:56.398Z,3104.00
2022-08-02T10:39:56.358Z,2992.00
2022-08-02T10:40:56.521Z,2792.00
2022-08-02T10:41:56.282Z,2712.00
2022-08-02T10:42:56.242Z,4432.00
2022-08-02T10:43:56.201Z,2696.00
2022-08-02T10:44:56.164Z,2372.00
2022-08-02T10:45:56.125Z,2224.00
2022-08-02T10:46:56.090Z,2568.00
2022-08-02T10:47:56.051Z,2948.00
2022-08-02T10:48:56.062Z,3208.00
2022-08-02T10:49:56.020Z,4464.00
2022-08-02T10:50:55.948Z,4136.00
2022-08-02T10:51:55.906Z,3896.00
2022-08-02T10:52:55.861Z,4248.00
2022-08-02T10:53:55.849Z,4712.00
2022-08-02T10:54:56.379Z,4648.00
2022-08-02T10:55:55.781Z,4068.00
2022-08-02T10:56:55.717Z,4056.00
2022-08-02T10:57:55.679Z,2664.00
2022-08-02T10:58:55.638Z,4416.00
2022-08-02T10:59:55.607Z,4780.00
2022-08-02T11:00:55.604Z,3128.00
2022-08-02T11:01:55.512Z,2652.00
2022-08-02T11:02:55.508Z,3904.00
2022-08-02T11:03:55.449Z,4968.00
2022-08-02T11:04:55.405Z,4960.00
2022-08-02T11:05:55.361Z,2740.00
2022-08-02T11:06:55.349Z,2648.00
2022-08-02T11:07:55.311Z,2596.00
2022-08-02T11:08:55.259Z,2660.00
2022-08-02T11:09:55.242Z,2784.00
2022-08-02T11:10:55.187Z,3004.00
2022-08-02T11:11:55.155Z,5392.00
2022-08-02T11:12:55.137Z,3080.00
2022-08-02T11:13:55.081Z,5780.00
2022-08-02T11:14:55.221Z,3912.00
2022-08-02T11:15:55.034Z,5848.00
2022-08-02T11:16:54.950Z,3324.00
2022-08-02T11:17:54.936Z,3356.00
2022-08-02T11:18:54.873Z,3600.00
2022-08-02T11:19:54.836Z,5008.00
2022-08-02T11:20:54.925Z,5112.00
2022-08-02T11:21:54.821Z,5140.00
2022-08-02T11:22:54.742Z,5508.00
2022-08-02T11:23:54.682Z,5412.00
2022-08-02T11:24:54.678Z,5284.00
2022-08-02T11:26:03.508Z,5224.00
2022-08-02T11:26:54.616Z,5164.00
2022-08-02T11:27:54.579Z,5172.00
2022-08-02T11:28:54.544Z,5220.00
2022-08-02T11:29:54.533Z,4988.00
2022-08-02T11:30:54.435Z,5576.00
2022-08-02T11:31:54.389Z,5596.00
2022-08-02T11:32:54.389Z,5444.00
2022-08-02T11:33:54.863Z,5460.00
2022-08-02T11:34:54.314Z,5344.00
2022-08-02T11:35:54.276Z,5336.00
2022-08-02T11:36:54.228Z,5300.00
2022-08-02T11:37:54.168Z,5732.00
2022-08-02T11:38:54.172Z,5696.00
2022-08-02T11:39:54.091Z,5796.00
2022-08-02T11:40:57.400Z,5936.00
2022-08-02T11:41:54.057Z,5812.00
2022-08-02T11:42:54.321Z,5752.00
2022-08-02T11:43:53.963Z,5660.00
2022-08-02T11:44:54.111Z,5648.00
2022-08-02T11:45:53.867Z,5980.00
2022-08-02T11:46:53.826Z,5540.00
2022-08-02T11:47:54.311Z,5612.00
2022-08-02T11:48:53.859Z,5280.00
2022-08-02T11:49:53.725Z,5548.00
2022-08-02T11:50:53.885Z,5340.00
2022-08-02T11:51:55.133Z,5552.00
2022-08-02T11:52:53.603Z,5460.00
2022-08-02T11:54:54.154Z,4248.00
2022-08-02T11:55:53.493Z,4132.00
2022-08-02T11:56:53.453Z,4112.00
2022-08-02T11:58:01.750Z,4464.00
2022-08-02T11:58:53.380Z,4500.00
2022-08-02T11:59:53.341Z,4352.00
2022-08-02T12:00:53.311Z,4204.00
2022-08-02T12:01:53.268Z,3976.00
2022-08-02T12:02:53.291Z,3860.00
2022-08-02T12:03:53.192Z,3804.00
2022-08-02T12:04:53.156Z,3696.00
2022-08-02T12:06:05.470Z,3584.00
2022-08-02T12:06:53.081Z,3508.00
2022-08-02T12:07:53.040Z,3428.00
2022-08-02T12:08:54.531Z,3296.00
2022-08-02T12:09:52.964Z,3176.00
2022-08-02T12:10:52.936Z,3072.00
2022-08-02T12:11:52.892Z,3120.00
2022-08-02T12:12:53.568Z,3180.00
2022-08-02T12:13:56.579Z,3636.00
2022-08-02T12:14:52.773Z,4688.00
2022-08-02T12:15:52.735Z,5280.00
2022-08-02T12:16:52.697Z,5524.00
2022-08-02T12:17:52.659Z,5212.00
2022-08-02T12:18:52.620Z,5056.00
2022-08-02T12:19:52.581Z,5932.00
2022-08-02T12:20:52.548Z,6088.00
2022-08-02T12:21:52.506Z,6132.00
2022-08-02T12:22:52.471Z,5992.00
2022-08-02T12:24:00.377Z,5676.00
2022-08-02T12:24:52.395Z,5536.00
2022-08-02T12:25:52.353Z,5436.00
2022-08-02T12:26:52.318Z,5812.00
2022-08-02T12:27:53.421Z,5676.00
2022-08-02T12:28:52.236Z,5856.00
2022-08-02T12:29:58.290Z,6008.00
2022-08-02T12:30:52.165Z,6376.00
2022-08-02T12:31:56.812Z,6292.00
2022-08-02T12:32:52.084Z,6604.00
2022-08-02T12:33:52.050Z,6624.00
2022-08-02T12:34:52.010Z,6396.00
2022-08-02T12:35:51.970Z,6048.00
2022-08-02T12:36:51.940Z,5812.00